Time;durP1;ratioP1;P1;durP2;ratioP2;P2;SDS_P1;SDS_P2;PMS_P1;PMS_P2;Temp;Humidity;BMP_temperature;BMP_pressure;BME280_temperature;BME280_humidity;BME280_pressure;Samples;Min_cycle;Max_cycle;Signal;HPM_P1;HPM_P2
2021/11/14 00:01:25;;;;;;;60.55;20.67;;;;;;;;;;5075702;28;20063;-60
2021/11/14 00:03:52;;;;;;;69.07;20.88;;;;;;;;;;5076552;28;20066;-59
2021/11/14 00:06:20;;;;;;;57.20;19.75;;;;;;;;;;5076530;28;20493;-59
2021/11/14 00:08:49;;;;;;;65.60;21.40;;;;;;;;;;5075355;27;20036;-59
2021/11/14 00:11:15;;;;;;;70.90;21.55;;;;;;;;;;5076307;28;20081;-60
2021/11/14 00:13:44;;;;;;;67.25;20.90;;;;;;;;;;5078771;28;20092;-60
2021/11/14 00:16:13;;;;;;;65.40;20.75;;;;;;;;;;5079453;27;20120;-59
2021/11/14 00:18:43;;;;;;;69.00;22.55;;;;;;;;;;5076627;28;20028;-59
2021/11/14 00:21:12;;;;;;;58.22;20.25;;;;;;;;;;5063427;28;20028;-60
2021/11/14 00:23:42;;;;;;;58.00;19.63;;;;;;;;;;5076668;28;20470;-59
2021/11/14 00:26:08;;;;;;;63.40;20.85;;;;;;;;;;5078461;28;20038;-59
2021/11/14 00:28:39;;;;;;;57.38;20.65;;;;;;;;;;5076782;28;20514;-60
2021/11/14 00:31:08;;;;;;;56.85;18.63;;;;;;;;;;5066453;28;20032;-60
2021/11/14 00:33:35;;;;;;;50.00;18.27;;;;;;;;;;5076421;28;20027;-60
2021/11/14 00:36:01;;;;;;;56.08;18.35;;;;;;;;;;5076489;28;20700;-59
2021/11/14 00:38:29;;;;;;;54.15;20.13;;;;;;;;;;5063629;28;20027;-61
2021/11/14 00:41:00;;;;;;;52.22;18.73;;;;;;;;;;5075451;28;20073;-59
2021/11/14 00:43:28;;;;;;;56.20;19.33;;;;;;;;;;5076623;28;20020;-59
2021/11/14 00:45:56;;;;;;;52.58;18.45;;;;;;;;;;5074911;28;20012;-60
2021/11/14 00:48:23;;;;;;;58.95;20.58;;;;;;;;;;5077609;28;20478;-61
2021/11/14 00:50:49;;;;;;;58.13;20.73;;;;;;;;;;5076324;28;20039;-61
2021/11/14 00:53:16;;;;;;;65.25;20.85;;;;;;;;;;5075932;28;20028;-60
2021/11/14 00:55:44;;;;;;;59.55;19.95;;;;;;;;;;5074105;27;20035;-60
2021/11/14 00:58:09;;;;;;;61.88;20.23;;;;;;;;;;5059803;28;20058;-61
2021/11/14 01:00:37;;;;;;;59.83;19.33;;;;;;;;;;5075269;28;20664;-59
2021/11/14 01:03:05;;;;;;;73.18;21.92;;;;;;;;;;5076396;28;20485;-60
2021/11/14 01:05:31;;;;;;;67.18;20.25;;;;;;;;;;5090006;27;20036;-59
2021/11/14 01:07:59;;;;;;;64.53;20.98;;;;;;;;;;5082215;28;20035;-61
2021/11/14 01:10:29;;;;;;;56.42;19.05;;;;;;;;;;5062846;28;20020;-60
2021/11/14 01:12:54;;;;;;;59.47;20.15;;;;;;;;;;5073138;27;20031;-61
2021/11/14 01:15:20;;;;;;;56.50;19.92;;;;;;;;;;5073069;28;20028;-61
2021/11/14 01:17:49;;;;;;;60.42;19.30;;;;;;;;;;5075122;28;20020;-59
2021/11/14 01:20:18;;;;;;;59.50;20.40;;;;;;;;;;5076661;28;20027;-60
2021/11/14 01:22:49;;;;;;;52.30;19.40;;;;;;;;;;5089694;27;20024;-60
2021/11/14 01:25:15;;;;;;;58.58;19.05;;;;;;;;;;5077919;28;20043;-60
2021/11/14 01:27:41;;;;;;;49.17;18.88;;;;;;;;;;5074973;28;20036;-60
2021/11/14 01:30:12;;;;;;;47.10;17.90;;;;;;;;;;5072896;28;20067;-61
2021/11/14 01:32:38;;;;;;;42.13;17.60;;;;;;;;;;5074887;28;20031;-60
2021/11/14 01:35:07;;;;;;;44.97;16.98;;;;;;;;;;5073914;28;20027;-59
2021/11/14 01:37:33;;;;;;;48.88;18.73;;;;;;;;;;5075361;28;20035;-59
2021/11/14 01:40:01;;;;;;;51.83;17.55;;;;;;;;;;5082189;28;20016;-59
2021/11/14 01:42:26;;;;;;;45.90;17.50;;;;;;;;;;5074275;28;20032;-60
2021/11/14 01:44:52;;;;;;;42.78;16.25;;;;;;;;;;5064470;28;20127;-61
2021/11/14 01:47:18;;;;;;;40.80;15.95;;;;;;;;;;5073550;28;20051;-60
2021/11/14 01:49:46;;;;;;;41.13;16.85;;;;;;;;;;5071787;28;20032;-60
2021/11/14 01:52:19;;;;;;;48.50;18.67;;;;;;;;;;5075178;28;20135;-58
2021/11/14 01:54:44;;;;;;;49.75;17.70;;;;;;;;;;5074132;28;21930;-60
2021/11/14 01:57:10;;;;;;;54.65;18.73;;;;;;;;;;5063794;28;20059;-60
2021/11/14 01:59:37;;;;;;;56.78;17.83;;;;;;;;;;5075523;27;20147;-61
2021/11/14 02:02:02;;;;;;;55.55;16.35;;;;;;;;;;5073331;28;20073;-62
2021/11/14 02:04:30;;;;;;;55.35;19.13;;;;;;;;;;5075351;28;20044;-60
2021/11/14 02:07:00;;;;;;;54.13;17.98;;;;;;;;;;5075516;28;20046;-60
2021/11/14 02:09:28;;;;;;;56.13;19.20;;;;;;;;;;5075823;28;20024;-61
2021/11/14 02:11:56;;;;;;;53.13;17.50;;;;;;;;;;5064064;28;20061;-61
2021/11/14 02:14:26;;;;;;;57.88;18.63;;;;;;;;;;5058523;28;20039;-59
2021/11/14 02:16:52;;;;;;;55.13;18.60;;;;;;;;;;5079886;28;20097;-59
2021/11/14 02:19:17;;;;;;;48.25;17.58;;;;;;;;;;5063118;28;20024;-60
2021/11/14 02:21:43;;;;;;;56.17;17.70;;;;;;;;;;5077277;27;20067;-59
2021/11/14 02:24:11;;;;;;;48.90;17.55;;;;;;;;;;5071952;27;20204;-59
2021/11/14 02:26:41;;;;;;;52.75;18.75;;;;;;;;;;5078897;27;20591;-60
2021/11/14 02:29:10;;;;;;;54.33;18.55;;;;;;;;;;5076597;28;20039;-60
2021/11/14 02:31:38;;;;;;;51.78;17.40;;;;;;;;;;5077916;27;20365;-60
2021/11/14 02:34:08;;;;;;;49.00;17.20;;;;;;;;;;5081357;28;20031;-60
2021/11/14 02:36:33;;;;;;;47.67;17.25;;;;;;;;;;5079919;28;20043;-59
2021/11/14 02:38:59;;;;;;;45.95;15.98;;;;;;;;;;5076227;28;20020;-60
2021/11/14 02:41:25;;;;;;;42.95;15.60;;;;;;;;;;5078654;28;20155;-61
2021/11/14 02:43:57;;;;;;;41.67;16.38;;;;;;;;;;5071697;28;20055;-60
2021/11/14 02:46:23;;;;;;;56.28;17.65;;;;;;;;;;5077160;28;20052;-59
2021/11/14 02:48:51;;;;;;;51.70;17.65;;;;;;;;;;5090800;27;20028;-60
2021/11/14 02:51:27;;;;;;;38.35;15.57;;;;;;;;;;5076570;28;20041;-61
2021/11/14 02:53:56;;;;;;;51.28;17.17;;;;;;;;;;5080164;28;20031;-60
2021/11/14 02:56:21;;;;;;;51.28;16.25;;;;;;;;;;5084548;28;20044;-60
2021/11/14 02:58:49;;;;;;;48.95;16.88;;;;;;;;;;5078959;27;20370;-60
2021/11/14 03:04:19;;;;;;;57.05;17.52;;;;;;;;;;5075697;28;20558;-61
2021/11/14 03:06:52;;;;;;;59.47;17.63;;;;;;;;;;5077941;28;20031;-60
2021/11/14 03:09:22;;;;;;;62.65;19.27;;;;;;;;;;5072835;28;20040;-60
2021/11/14 03:11:51;;;;;;;58.15;18.67;;;;;;;;;;5076765;28;20055;-59
2021/11/14 03:14:22;;;;;;;59.72;18.80;;;;;;;;;;5061650;28;20114;-60
2021/11/14 03:16:52;;;;;;;67.18;19.60;;;;;;;;;;5073543;28;20035;-60
2021/11/14 03:19:21;;;;;;;71.45;20.30;;;;;;;;;;5076670;28;20035;-60
2021/11/14 03:21:48;;;;;;;68.25;20.00;;;;;;;;;;5076601;28;20042;-61
2021/11/14 03:24:14;;;;;;;61.22;17.92;;;;;;;;;;5076351;27;20032;-59
2021/11/14 03:26:42;;;;;;;63.22;19.45;;;;;;;;;;5092996;27;20016;-61
2021/11/14 03:29:10;;;;;;;63.28;18.35;;;;;;;;;;5075762;27;20035;-61
2021/11/14 03:31:39;;;;;;;64.65;18.48;;;;;;;;;;5076385;27;20518;-59
2021/11/14 03:34:05;;;;;;;52.45;18.17;;;;;;;;;;5089690;27;20516;-59
2021/11/14 03:36:33;;;;;;;50.00;17.08;;;;;;;;;;5058718;28;20036;-59
2021/11/14 03:39:02;;;;;;;60.75;18.17;;;;;;;;;;5057206;28;20120;-60
2021/11/14 03:41:30;;;;;;;54.85;18.20;;;;;;;;;;5082724;28;20048;-60
2021/11/14 03:44:00;;;;;;;59.80;17.42;;;;;;;;;;5076787;28;20082;-60
2021/11/14 03:46:26;;;;;;;55.85;18.23;;;;;;;;;;5062724;28;20877;-59
2021/11/14 03:48:54;;;;;;;59.20;17.85;;;;;;;;;;5070277;27;20027;-60
2021/11/14 03:51:21;;;;;;;64.88;18.20;;;;;;;;;;5059726;28;20039;-59
2021/11/14 03:53:46;;;;;;;66.47;20.08;;;;;;;;;;5091382;27;20123;-60
2021/11/14 03:56:13;;;;;;;68.00;19.98;;;;;;;;;;5077188;28;20051;-59
2021/11/14 03:58:41;;;;;;;68.45;18.80;;;;;;;;;;5074685;27;20043;-59
2021/11/14 04:01:08;;;;;;;67.20;19.67;;;;;;;;;;5055092;28;20530;-60
2021/11/14 04:03:34;;;;;;;53.63;18.33;;;;;;;;;;5077156;27;20375;-61
2021/11/14 04:06:03;;;;;;;62.72;19.25;;;;;;;;;;5076492;27;20283;-59
2021/11/14 04:08:30;;;;;;;64.50;20.17;;;;;;;;;;5075357;28;20050;-60
2021/11/14 04:10:57;;;;;;;54.88;17.08;;;;;;;;;;5076360;28;20039;-60
2021/11/14 04:13:23;;;;;;;62.03;17.65;;;;;;;;;;5077300;28;20112;-61
2021/11/14 04:15:49;;;;;;;57.10;16.77;;;;;;;;;;5073278;27;20019;-60
2021/11/14 04:18:15;;;;;;;55.55;17.58;;;;;;;;;;5074322;28;21022;-61
2021/11/14 04:20:44;;;;;;;62.17;17.48;;;;;;;;;;5075894;28;20036;-60
2021/11/14 04:23:17;;;;;;;62.15;18.13;;;;;;;;;;5082236;28;20092;-59
2021/11/14 04:25:49;;;;;;;53.67;17.90;;;;;;;;;;5072960;28;20032;-59
2021/11/14 04:28:19;;;;;;;52.03;17.35;;;;;;;;;;5076725;28;20146;-60
2021/11/14 04:30:49;;;;;;;49.42;16.70;;;;;;;;;;5079034;28;20159;-59
2021/11/14 04:36:30;;;;;;;52.28;16.25;;;;;;;;;;5080130;27;20493;-59
2021/11/14 04:39:01;;;;;;;55.13;17.13;;;;;;;;;;5075086;28;20688;-60
2021/11/14 04:41:29;;;;;;;53.38;17.50;;;;;;;;;;5074430;28;20028;-60
2021/11/14 04:43:54;;;;;;;46.42;16.20;;;;;;;;;;5073127;28;20072;-60
2021/11/14 04:46:24;;;;;;;43.22;16.08;;;;;;;;;;5074824;28;20105;-60
2021/11/14 04:48:52;;;;;;;55.72;16.55;;;;;;;;;;5062928;28;20049;-60
2021/11/14 04:51:17;;;;;;;45.88;15.35;;;;;;;;;;5070295;28;20113;-59
2021/11/14 04:53:43;;;;;;;50.10;16.02;;;;;;;;;;5074908;28;20123;-60
2021/11/14 04:56:14;;;;;;;45.40;14.90;;;;;;;;;;5075004;28;20047;-61
2021/11/14 04:58:46;;;;;;;41.00;16.67;;;;;;;;;;5073284;28;20119;-65
2021/11/14 05:01:14;;;;;;;43.50;16.58;;;;;;;;;;5073016;27;20119;-61
2021/11/14 05:03:46;;;;;;;46.17;16.77;;;;;;;;;;5069788;28;20103;-62
2021/11/14 05:06:13;;;;;;;48.08;16.85;;;;;;;;;;5074800;28;20597;-61
2021/11/14 05:08:41;;;;;;;54.63;16.20;;;;;;;;;;5073732;28;20032;-61
2021/11/14 05:11:06;;;;;;;45.75;15.77;;;;;;;;;;5073651;28;20047;-61
2021/11/14 05:13:36;;;;;;;49.25;16.00;;;;;;;;;;5073727;28;20060;-60
2021/11/14 05:16:04;;;;;;;56.22;17.90;;;;;;;;;;5055910;28;20063;-60
2021/11/14 05:18:32;;;;;;;54.58;17.42;;;;;;;;;;5070369;28;20035;-62
2021/11/14 05:21:00;;;;;;;58.10;18.20;;;;;;;;;;5060485;28;20043;-59
2021/11/14 05:23:31;;;;;;;57.22;18.10;;;;;;;;;;5074659;27;20123;-59
2021/11/14 05:25:59;;;;;;;46.33;17.02;;;;;;;;;;5075750;28;20176;-60
2021/11/14 05:28:25;;;;;;;52.63;16.08;;;;;;;;;;5077815;28;20112;-60
2021/11/14 05:30:55;;;;;;;56.03;17.05;;;;;;;;;;5072488;28;20040;-60
2021/11/14 05:33:23;;;;;;;55.53;17.83;;;;;;;;;;5061832;28;20036;-59
2021/11/14 05:35:51;;;;;;;44.05;15.68;;;;;;;;;;5071704;28;20032;-60
2021/11/14 05:38:19;;;;;;;49.63;17.73;;;;;;;;;;5072308;28;20046;-59
2021/11/14 05:40:47;;;;;;;45.33;16.55;;;;;;;;;;5074473;28;20978;-60
2021/11/14 05:43:17;;;;;;;39.42;15.43;;;;;;;;;;5075800;28;20027;-59
2021/11/14 05:45:43;;;;;;;45.40;15.57;;;;;;;;;;5070518;28;20031;-60
2021/11/14 05:48:15;;;;;;;43.15;15.10;;;;;;;;;;5075226;28;20035;-60
2021/11/14 05:50:40;;;;;;;49.47;15.48;;;;;;;;;;5075016;28;20039;-60
2021/11/14 05:53:06;;;;;;;51.28;15.82;;;;;;;;;;5073760;28;20032;-59
2021/11/14 05:55:32;;;;;;;42.85;15.27;;;;;;;;;;5077112;28;20028;-61
2021/11/14 05:58:05;;;;;;;47.85;14.75;;;;;;;;;;5078783;28;20031;-60
2021/11/14 06:00:49;;;;;;;46.80;14.45;;;;;;;;;;5079299;27;20047;-60
2021/11/14 06:06:03;;;;;;;43.90;14.15;;;;;;;;;;5081154;28;21098;-60
2021/11/14 06:08:34;;;;;;;44.42;15.73;;;;;;;;;;5077136;27;20145;-60
2021/11/14 06:11:02;;;;;;;41.70;15.60;;;;;;;;;;5076044;28;20025;-60
2021/11/14 06:13:32;;;;;;;48.78;16.80;;;;;;;;;;5077022;28;20043;-59
2021/11/14 06:15:58;;;;;;;54.72;16.23;;;;;;;;;;5073887;28;20052;-60
2021/11/14 06:18:26;;;;;;;42.60;16.33;;;;;;;;;;5074296;27;20083;-59
2021/11/14 06:20:53;;;;;;;51.90;17.42;;;;;;;;;;5076265;28;20024;-61
2021/11/14 06:23:24;;;;;;;58.95;18.15;;;;;;;;;;5077022;27;20031;-59
2021/11/14 06:25:52;;;;;;;50.05;16.70;;;;;;;;;;5076171;28;20095;-62
2021/11/14 06:28:20;;;;;;;55.92;16.38;;;;;;;;;;5074975;28;20082;-59
2021/11/14 06:30:47;;;;;;;44.80;16.33;;;;;;;;;;5076158;28;20158;-60
2021/11/14 06:33:15;;;;;;;48.63;16.90;;;;;;;;;;5079258;28;20657;-61
2021/11/14 06:35:41;;;;;;;55.60;16.60;;;;;;;;;;5076633;27;20035;-60
2021/11/14 06:38:10;;;;;;;50.70;17.17;;;;;;;;;;5076932;28;21965;-61
2021/11/14 06:40:37;;;;;;;51.90;17.40;;;;;;;;;;5077388;27;20645;-59
2021/11/14 06:43:11;;;;;;;50.58;16.27;;;;;;;;;;5076491;28;20024;-60
2021/11/14 06:45:38;;;;;;;48.95;16.25;;;;;;;;;;5080661;28;20470;-61
2021/11/14 06:48:07;;;;;;;61.28;17.92;;;;;;;;;;5080741;27;20027;-62
2021/11/14 06:50:35;;;;;;;51.92;17.58;;;;;;;;;;5075913;28;20795;-60
2021/11/14 06:53:00;;;;;;;44.58;15.73;;;;;;;;;;5075763;28;20099;-60
2021/11/14 06:58:43;;;;;;;46.47;14.98;;;;;;;;;;5075844;28;20134;-59
2021/11/14 07:01:11;;;;;;;44.92;16.52;;;;;;;;;;5076906;28;20031;-59
2021/11/14 07:03:36;;;;;;;47.53;16.40;;;;;;;;;;5084948;28;20032;-59
2021/11/14 07:06:02;;;;;;;50.38;17.17;;;;;;;;;;5059997;28;20039;-59
2021/11/14 07:08:30;;;;;;;43.10;16.10;;;;;;;;;;5078986;27;20038;-59
2021/11/14 07:10:56;;;;;;;43.75;15.40;;;;;;;;;;5076258;27;20085;-59
2021/11/14 07:13:23;;;;;;;45.65;16.42;;;;;;;;;;5078287;28;20035;-59
2021/11/14 07:15:54;;;;;;;44.20;16.95;;;;;;;;;;5063059;28;20031;-59
2021/11/14 07:18:22;;;;;;;47.58;16.25;;;;;;;;;;5077232;27;20101;-60
2021/11/14 07:20:50;;;;;;;41.08;15.65;;;;;;;;;;5074189;28;20027;-58
2021/11/14 07:23:15;;;;;;;46.50;16.65;;;;;;;;;;5071585;28;20035;-59
2021/11/14 07:25:44;;;;;;;50.88;17.40;;;;;;;;;;5090705;27;20027;-59
2021/11/14 07:28:12;;;;;;;42.92;16.20;;;;;;;;;;5064615;28;21248;-60
2021/11/14 07:30:41;;;;;;;42.92;15.65;;;;;;;;;;5075459;28;20651;-60
2021/11/14 07:33:09;;;;;;;43.10;16.90;;;;;;;;;;5059635;28;20028;-59
2021/11/14 07:35:35;;;;;;;38.08;15.50;;;;;;;;;;5073437;28;20930;-59
2021/11/14 07:38:02;;;;;;;41.45;15.32;;;;;;;;;;5092274;27;20024;-60
2021/11/14 07:40:30;;;;;;;38.88;15.85;;;;;;;;;;5084077;28;20074;-60
2021/11/14 07:42:58;;;;;;;39.03;15.93;;;;;;;;;;5072507;28;20054;-59
2021/11/14 07:45:29;;;;;;;46.67;14.77;;;;;;;;;;5057016;28;20024;-58
2021/11/14 07:47:58;;;;;;;41.53;14.30;;;;;;;;;;5076680;28;20040;-58
2021/11/14 07:50:27;;;;;;;38.58;14.63;;;;;;;;;;5050024;28;20111;-60
2021/11/14 07:52:58;;;;;;;39.67;14.38;;;;;;;;;;5075616;28;20043;-60
2021/11/14 07:55:26;;;;;;;34.78;14.35;;;;;;;;;;5075007;27;20055;-59
2021/11/14 07:57:58;;;;;;;43.05;15.55;;;;;;;;;;5073893;28;20052;-61
2021/11/14 08:00:23;;;;;;;40.38;15.93;;;;;;;;;;5057086;28;20165;-61
2021/11/14 08:02:52;;;;;;;41.08;14.32;;;;;;;;;;5075161;28;20034;-59
2021/11/14 08:05:25;;;;;;;43.08;15.73;;;;;;;;;;5070979;28;20020;-59
2021/11/14 08:07:50;;;;;;;42.25;14.68;;;;;;;;;;5076213;28;20019;-59
2021/11/14 08:10:17;;;;;;;40.63;14.98;;;;;;;;;;5074108;28;20030;-60
2021/11/14 08:12:45;;;;;;;41.00;14.25;;;;;;;;;;5074422;28;20034;-59
2021/11/14 08:15:14;;;;;;;39.25;14.70;;;;;;;;;;5073135;28;20034;-59
2021/11/14 08:17:42;;;;;;;34.92;13.52;;;;;;;;;;5076771;28;20036;-59
2021/11/14 08:20:10;;;;;;;48.33;14.32;;;;;;;;;;5074797;28;20966;-59
2021/11/14 08:22:39;;;;;;;31.52;13.13;;;;;;;;;;5075833;28;20477;-59
2021/11/14 08:25:07;;;;;;;37.63;14.93;;;;;;;;;;5077163;28;20085;-59
2021/11/14 08:27:35;;;;;;;40.63;15.02;;;;;;;;;;5082220;28;20111;-60
2021/11/14 08:30:04;;;;;;;45.38;14.65;;;;;;;;;;5073614;28;20028;-61
2021/11/14 08:32:30;;;;;;;33.45;13.32;;;;;;;;;;5075289;28;20047;-60
2021/11/14 08:34:55;;;;;;;34.65;14.02;;;;;;;;;;5064920;28;20032;-59
2021/11/14 08:37:21;;;;;;;38.65;13.65;;;;;;;;;;5070801;27;20478;-59
2021/11/14 08:39:49;;;;;;;34.90;14.27;;;;;;;;;;5074705;28;20044;-59
2021/11/14 08:42:14;;;;;;;37.28;15.15;;;;;;;;;;5079600;28;20616;-60
2021/11/14 08:44:42;;;;;;;39.53;14.85;;;;;;;;;;5074674;28;20086;-59
2021/11/14 08:47:10;;;;;;;42.03;14.90;;;;;;;;;;5075668;28;20026;-59
2021/11/14 08:49:38;;;;;;;39.72;13.07;;;;;;;;;;5079756;28;20035;-60
2021/11/14 08:52:03;;;;;;;38.53;15.27;;;;;;;;;;5082031;28;21046;-60
2021/11/14 08:54:29;;;;;;;40.17;14.13;;;;;;;;;;5075470;27;20460;-60
2021/11/14 08:56:54;;;;;;;44.47;16.33;;;;;;;;;;5074225;28;20126;-59
2021/11/14 08:59:20;;;;;;;40.00;15.73;;;;;;;;;;5051166;28;20492;-60
2021/11/14 09:01:49;;;;;;;45.60;16.58;;;;;;;;;;5057019;28;20105;-60
2021/11/14 09:04:14;;;;;;;45.50;16.30;;;;;;;;;;5078123;28;20024;-60
2021/11/14 09:06:40;;;;;;;47.22;17.00;;;;;;;;;;5072687;28;20473;-60
2021/11/14 09:09:10;;;;;;;38.67;16.55;;;;;;;;;;5069060;28;20123;-60
2021/11/14 09:11:43;;;;;;;44.47;17.10;;;;;;;;;;5073250;28;20035;-60
2021/11/14 09:14:09;;;;;;;36.95;14.90;;;;;;;;;;5050991;28;20032;-59
2021/11/14 09:16:35;;;;;;;42.08;15.70;;;;;;;;;;5072840;28;20028;-59
2021/11/14 09:19:03;;;;;;;41.70;16.80;;;;;;;;;;5072146;28;20031;-60
2021/11/14 09:21:34;;;;;;;42.72;15.77;;;;;;;;;;5071432;28;20020;-59
2021/11/14 09:23:59;;;;;;;41.83;16.15;;;;;;;;;;5074091;28;20039;-61
2021/11/14 09:26:30;;;;;;;41.15;16.73;;;;;;;;;;5072356;28;20036;-59
2021/11/14 09:28:55;;;;;;;36.80;14.93;;;;;;;;;;5059862;28;20042;-58
2021/11/14 09:31:21;;;;;;;41.13;14.10;;;;;;;;;;5059946;28;20032;-58
2021/11/14 09:33:49;;;;;;;36.75;14.65;;;;;;;;;;5070788;28;21032;-58
2021/11/14 09:36:17;;;;;;;35.58;14.52;;;;;;;;;;5072630;28;20034;-61
2021/11/14 09:38:48;;;;;;;38.80;14.80;;;;;;;;;;5072717;28;20032;-61
2021/11/14 09:41:14;;;;;;;37.92;15.07;;;;;;;;;;5054080;28;20111;-60
2021/11/14 09:43:42;;;;;;;38.47;14.23;;;;;;;;;;5074319;28;20028;-61
2021/11/14 09:46:08;;;;;;;34.17;14.20;;;;;;;;;;5056877;28;20073;-59
2021/11/14 09:48:33;;;;;;;40.15;14.60;;;;;;;;;;5069633;28;20040;-60
2021/11/14 09:51:00;;;;;;;35.95;15.30;;;;;;;;;;5067929;28;20042;-60
2021/11/14 09:53:27;;;;;;;35.13;13.38;;;;;;;;;;5070691;28;20016;-59
2021/11/14 09:55:55;;;;;;;35.03;13.70;;;;;;;;;;5072533;28;20035;-60
2021/11/14 09:58:25;;;;;;;43.85;15.43;;;;;;;;;;5069890;28;20044;-59
2021/11/14 10:00:51;;;;;;;35.63;14.73;;;;;;;;;;5077214;28;20034;-59
2021/11/14 10:03:17;;;;;;;36.33;14.90;;;;;;;;;;5071706;28;20131;-59
2021/11/14 10:05:42;;;;;;;35.25;14.50;;;;;;;;;;5075133;28;20027;-59
2021/11/14 10:08:09;;;;;;;34.20;13.38;;;;;;;;;;5068302;28;20055;-60
2021/11/14 10:10:38;;;;;;;36.33;14.45;;;;;;;;;;5086344;27;20122;-60
2021/11/14 10:13:30;;;;;;;37.35;15.00;;;;;;;;;;5070423;28;20433;-61
2021/11/14 10:16:07;;;;;;;42.33;15.38;;;;;;;;;;5076567;28;20043;-61
2021/11/14 10:18:39;;;;;;;29.52;13.10;;;;;;;;;;5072936;28;20040;-60
2021/11/14 10:21:06;;;;;;;32.78;13.90;;;;;;;;;;5071376;28;20032;-61
2021/11/14 10:23:40;;;;;;;36.03;12.93;;;;;;;;;;5070142;28;20035;-62
2021/11/14 10:26:13;;;;;;;35.00;14.55;;;;;;;;;;5071097;28;20080;-60
2021/11/14 10:28:41;;;;;;;36.10;15.07;;;;;;;;;;5074328;28;20070;-60
2021/11/14 10:31:07;;;;;;;40.45;14.15;;;;;;;;;;5071357;28;20028;-62
2021/11/14 10:33:37;;;;;;;35.05;14.25;;;;;;;;;;5072926;28;20928;-61
2021/11/14 10:36:06;;;;;;;38.90;13.70;;;;;;;;;;5073551;28;20034;-62
2021/11/14 10:38:35;;;;;;;33.15;13.15;;;;;;;;;;5073280;28;20634;-61
2021/11/14 10:41:05;;;;;;;29.73;12.40;;;;;;;;;;5074257;28;20059;-60
2021/11/14 10:43:37;;;;;;;30.75;12.27;;;;;;;;;;5073426;28;20034;-61
2021/11/14 10:46:03;;;;;;;30.88;12.30;;;;;;;;;;5072881;28;20093;-60
2021/11/14 10:48:30;;;;;;;31.35;11.40;;;;;;;;;;5071189;28;20028;-60
2021/11/14 10:50:58;;;;;;;29.95;12.35;;;;;;;;;;5078985;28;20022;-61
2021/11/14 10:53:25;;;;;;;26.17;11.10;;;;;;;;;;5069929;28;20039;-61
2021/11/14 10:55:52;;;;;;;23.02;10.35;;;;;;;;;;5073597;27;20096;-59
2021/11/14 10:58:23;;;;;;;26.52;10.63;;;;;;;;;;5075705;28;20035;-59
2021/11/14 11:00:55;;;;;;;26.77;10.85;;;;;;;;;;5076109;27;20905;-59
2021/11/14 11:03:33;;;;;;;23.15;11.02;;;;;;;;;;5078528;28;20032;-58
2021/11/14 11:05:58;;;;;;;25.60;11.32;;;;;;;;;;5075558;28;20486;-59
2021/11/14 11:08:24;;;;;;;24.98;10.05;;;;;;;;;;5056305;28;20036;-60
2021/11/14 11:10:56;;;;;;;22.13;10.70;;;;;;;;;;5073880;28;20024;-60
2021/11/14 11:13:31;;;;;;;26.02;10.93;;;;;;;;;;5076220;28;20028;-59
2021/11/14 11:15:59;;;;;;;22.00;9.52;;;;;;;;;;5072997;28;20028;-59
2021/11/14 11:18:28;;;;;;;21.58;9.93;;;;;;;;;;5077680;28;20111;-59
2021/11/14 11:20:54;;;;;;;23.38;10.00;;;;;;;;;;5073952;27;20032;-60
2021/11/14 11:23:20;;;;;;;21.35;9.90;;;;;;;;;;5073646;27;20050;-60
2021/11/14 11:25:51;;;;;;;20.80;9.80;;;;;;;;;;5075818;28;20588;-59
2021/11/14 11:28:20;;;;;;;21.85;9.52;;;;;;;;;;5076874;28;20817;-59
2021/11/14 11:30:55;;;;;;;26.75;10.45;;;;;;;;;;5075731;27;20065;-60
2021/11/14 11:33:21;;;;;;;24.52;10.60;;;;;;;;;;5076860;28;20134;-59
2021/11/14 11:35:50;;;;;;;18.50;9.27;;;;;;;;;;5076241;28;20039;-59
2021/11/14 11:38:19;;;;;;;24.30;9.93;;;;;;;;;;5073631;27;20031;-59
2021/11/14 11:40:47;;;;;;;21.95;9.45;;;;;;;;;;5071359;27;20026;-60
2021/11/14 11:43:14;;;;;;;22.75;10.27;;;;;;;;;;5049195;28;20024;-60
2021/11/14 11:45:44;;;;;;;22.20;10.05;;;;;;;;;;5073703;28;20036;-60
2021/11/14 11:48:15;;;;;;;22.67;10.27;;;;;;;;;;5075949;28;21920;-59
2021/11/14 11:50:46;;;;;;;25.13;10.70;;;;;;;;;;5074370;28;20741;-60
2021/11/14 11:53:21;;;;;;;26.13;10.25;;;;;;;;;;5072748;28;20040;-61
2021/11/14 11:55:49;;;;;;;28.67;10.73;;;;;;;;;;5078286;27;20036;-61
2021/11/14 11:58:16;;;;;;;24.25;10.23;;;;;;;;;;5075129;27;20201;-62
2021/11/14 12:00:55;;;;;;;32.95;11.43;;;;;;;;;;5057247;28;20035;-60
2021/11/14 12:03:24;;;;;;;30.08;12.38;;;;;;;;;;5080771;28;20043;-60
2021/11/14 12:05:49;;;;;;;33.08;12.32;;;;;;;;;;5074915;27;20743;-62
2021/11/14 12:08:15;;;;;;;31.90;12.05;;;;;;;;;;5076962;28;20117;-62
2021/11/14 12:10:42;;;;;;;35.92;14.18;;;;;;;;;;5080886;27;20032;-61
2021/11/14 12:13:10;;;;;;;39.08;13.50;;;;;;;;;;5077194;28;20158;-59
2021/11/14 12:15:38;;;;;;;41.65;14.45;;;;;;;;;;5083354;28;20023;-63
2021/11/14 12:18:06;;;;;;;33.30;12.95;;;;;;;;;;5076486;27;20024;-60
2021/11/14 12:20:42;;;;;;;31.23;13.07;;;;;;;;;;5078163;28;20034;-61
2021/11/14 12:23:21;;;;;;;27.75;10.75;;;;;;;;;;5091781;27;20115;-60
2021/11/14 12:25:48;;;;;;;30.45;12.00;;;;;;;;;;5075774;28;20047;-60
2021/11/14 12:28:17;;;;;;;28.38;12.20;;;;;;;;;;5077877;28;20032;-60
2021/11/14 12:31:38;;;;;;;30.60;11.82;;;;;;;;;;5072019;27;20632;-59
2021/11/14 12:33:48;;;;;;;33.90;12.73;;;;;;;;;;5072830;28;20133;-60
2021/11/14 12:36:18;;;;;;;36.88;13.65;;;;;;;;;;5073763;27;20099;-59
2021/11/14 12:38:44;;;;;;;30.13;11.88;;;;;;;;;;5074814;28;20066;-61
2021/11/14 12:41:11;;;;;;;34.97;13.30;;;;;;;;;;5072670;28;20529;-61
2021/11/14 12:43:46;;;;;;;35.80;12.93;;;;;;;;;;5076397;28;20862;-60
2021/11/14 12:46:16;;;;;;;40.05;16.30;;;;;;;;;;5073553;27;20022;-60
2021/11/14 12:48:46;;;;;;;33.65;13.30;;;;;;;;;;5072276;28;20127;-60
2021/11/14 12:51:21;;;;;;;35.10;13.40;;;;;;;;;;5082042;28;20156;-60
2021/11/14 12:53:47;;;;;;;34.15;13.40;;;;;;;;;;5075415;28;20036;-61
2021/11/14 12:56:17;;;;;;;35.80;13.98;;;;;;;;;;5064574;27;20400;-61
2021/11/14 12:58:47;;;;;;;30.33;13.15;;;;;;;;;;5067266;28;20027;-60
2021/11/14 13:01:24;;;;;;;31.83;13.50;;;;;;;;;;5060434;28;20028;-60
2021/11/14 13:03:53;;;;;;;35.22;12.60;;;;;;;;;;5075837;28;20053;-60
2021/11/14 13:06:20;;;;;;;32.40;13.32;;;;;;;;;;5075759;28;20451;-61
2021/11/14 13:08:46;;;;;;;43.25;16.20;;;;;;;;;;5074835;28;20644;-60
2021/11/14 13:11:22;;;;;;;36.42;14.32;;;;;;;;;;5080545;28;20035;-60
2021/11/14 13:13:50;;;;;;;42.67;13.52;;;;;;;;;;5074025;28;20047;-60
2021/11/14 13:16:20;;;;;;;36.08;14.68;;;;;;;;;;5071281;28;20144;-60
2021/11/14 13:18:51;;;;;;;36.22;15.45;;;;;;;;;;5072215;28;20032;-61
2021/11/14 13:21:20;;;;;;;36.53;14.27;;;;;;;;;;5081161;28;20020;-62
2021/11/14 13:24:09;;;;;;;39.08;15.00;;;;;;;;;;5057724;28;20036;-61
2021/11/14 13:26:56;;;;;;;31.75;13.52;;;;;;;;;;5072799;28;20928;-60
2021/11/14 13:29:26;;;;;;;35.20;14.43;;;;;;;;;;5075629;28;20036;-60
2021/11/14 13:31:57;;;;;;;34.53;12.93;;;;;;;;;;5075767;28;20077;-60
2021/11/14 13:34:28;;;;;;;40.97;14.10;;;;;;;;;;5070485;28;20035;-62
2021/11/14 13:36:54;;;;;;;34.10;13.82;;;;;;;;;;5076916;28;20035;-60
2021/11/14 13:39:26;;;;;;;35.55;14.18;;;;;;;;;;5074873;28;20032;-60
2021/11/14 13:41:55;;;;;;;36.28;15.23;;;;;;;;;;5072942;28;20036;-61
2021/11/14 13:44:30;;;;;;;32.97;13.57;;;;;;;;;;5074434;28;20678;-60
2021/11/14 13:47:09;;;;;;;32.97;13.70;;;;;;;;;;5079626;28;20036;-61
2021/11/14 13:49:37;;;;;;;38.33;14.18;;;;;;;;;;5071928;28;20113;-60
2021/11/14 13:52:08;;;;;;;32.45;14.48;;;;;;;;;;5064741;28;20051;-60
2021/11/14 13:54:45;;;;;;;32.00;13.93;;;;;;;;;;5073170;28;20069;-60
2021/11/14 13:57:17;;;;;;;33.92;13.63;;;;;;;;;;5059951;28;20044;-60
2021/11/14 13:59:45;;;;;;;39.67;13.68;;;;;;;;;;5075089;28;20040;-61
2021/11/14 14:02:16;;;;;;;34.85;13.68;;;;;;;;;;5077858;28;20167;-60
2021/11/14 14:04:54;;;;;;;37.80;17.40;;;;;;;;;;5074245;28;20661;-60
2021/11/14 14:07:20;;;;;;;33.17;14.23;;;;;;;;;;5074413;28;20717;-61
2021/11/14 14:09:55;;;;;;;37.40;14.07;;;;;;;;;;5073707;28;20628;-60
2021/11/14 14:16:00;;;;;;;42.22;14.60;;;;;;;;;;5077115;28;20140;-60
2021/11/14 14:18:35;;;;;;;35.90;14.43;;;;;;;;;;5075524;27;20043;-60
2021/11/14 14:21:05;;;;;;;28.42;11.82;;;;;;;;;;5079039;28;20070;-60
2021/11/14 14:23:36;;;;;;;28.70;12.57;;;;;;;;;;5083158;27;20039;-60
2021/11/14 14:26:01;;;;;;;36.08;13.27;;;;;;;;;;5091603;27;20070;-61
2021/11/14 14:28:28;;;;;;;29.80;12.90;;;;;;;;;;5063773;28;20023;-60
2021/11/14 14:30:58;;;;;;;38.72;15.20;;;;;;;;;;5077352;28;20119;-60
2021/11/14 14:33:25;;;;;;;32.35;13.23;;;;;;;;;;5077414;28;20031;-60
2021/11/14 14:36:00;;;;;;;38.10;13.32;;;;;;;;;;5078415;28;20122;-64
2021/11/14 14:38:26;;;;;;;33.28;12.32;;;;;;;;;;5081135;28;20515;-62
2021/11/14 14:40:55;;;;;;;41.70;15.52;;;;;;;;;;5090018;27;20039;-61